Time;durP1;ratioP1;P1;durP2;ratioP2;P2;SDS_P1;SDS_P2;PMS_P1;PMS_P2;Temp;Humidity;BMP_temperature;BMP_pressure;BME280_temperature;BME280_humidity;BME280_pressure;Samples;Min_cycle;Max_cycle;Signal;HPM_P1;HPM_P2
2023/06/09 00:01:37;;;;;;;5.10;2.43;;;13.00;99.90;;;;;;5052981;28;20083;-55
2023/06/09 00:04:03;;;;;;;6.00;2.00;;;13.00;99.90;;;;;;5053414;28;20082;-55
2023/06/09 00:06:30;;;;;;;;;;;13.00;99.90;;;;;;5053429;28;20041;-55
2023/06/09 00:08:57;;;;;;;7.05;2.17;;;13.00;99.90;;;;;;5052083;28;19927;-55
2023/06/09 00:11:23;;;;;;;7.32;2.40;;;13.00;99.90;;;;;;5051699;28;20041;-55
2023/06/09 00:13:49;;;;;;;8.37;2.23;;;13.00;99.90;;;;;;5055828;28;20056;-55
2023/06/09 00:16:15;;;;;;;5.82;2.45;;;13.00;99.90;;;;;;5056923;28;20311;-55
2023/06/09 00:18:41;;;;;;;7.88;2.63;;;12.90;99.90;;;;;;5056869;28;20053;-55
2023/06/09 00:21:08;;;;;;;8.15;3.03;;;12.90;99.90;;;;;;5055712;28;20045;-55
2023/06/09 00:23:34;;;;;;;6.25;3.00;;;12.90;99.90;;;;;;5056669;28;20492;-55
2023/06/09 00:26:00;;;;;;;8.02;2.55;;;12.90;99.90;;;;;;5056475;28;20043;-55
2023/06/09 00:28:25;;;;;;;9.13;2.83;;;12.90;99.90;;;;;;5055727;28;20041;-54
2023/06/09 00:30:51;;;;;;;7.03;2.63;;;12.90;99.90;;;;;;5056490;28;20099;-55
2023/06/09 00:33:18;;;;;;;8.67;2.77;;;12.90;99.90;;;;;;5056615;28;20049;-54
2023/06/09 00:35:43;;;;;;;;;;;12.90;99.90;;;;;;5056898;28;20036;-55
2023/06/09 00:38:09;;;;;;;9.32;2.42;;;12.90;99.90;;;;;;5055595;28;20012;-55
2023/06/09 00:40:35;;;;;;;8.15;3.15;;;12.90;99.90;;;;;;5056192;28;20136;-55
2023/06/09 00:43:00;;;;;;;6.55;2.75;;;12.80;99.90;;;;;;5056443;28;20052;-55
2023/06/09 00:45:26;;;;;;;6.93;2.60;;;12.90;99.90;;;;;;5056398;28;20037;-55
2023/06/09 00:47:54;;;;;;;8.60;3.00;;;12.80;99.90;;;;;;5055517;28;20301;-55
2023/06/09 00:50:20;;;;;;;5.90;2.60;;;12.80;99.90;;;;;;5055239;28;20064;-55
2023/06/09 00:52:47;;;;;;;8.57;3.00;;;12.70;99.90;;;;;;5056255;28;20049;-55
2023/06/09 00:55:14;;;;;;;7.00;2.60;;;12.70;99.90;;;;;;5056134;28;20130;-55
2023/06/09 00:57:41;;;;;;;7.03;2.63;;;12.60;99.90;;;;;;5055243;28;20053;-55
2023/06/09 01:00:07;;;;;;;6.50;2.97;;;12.60;99.90;;;;;;5055465;28;20407;-54
2023/06/09 01:02:38;;;;;;;7.07;3.13;;;12.60;99.90;;;;;;5056392;28;20045;-55
2023/06/09 01:05:06;;;;;;;8.00;2.90;;;12.50;99.90;;;;;;5055854;28;20431;-55
2023/06/09 01:07:40;;;;;;;7.75;2.58;;;12.50;99.90;;;;;;5055682;28;20041;-55
2023/06/09 01:10:12;;;;;;;7.30;2.80;;;12.50;99.90;;;;;;5056050;28;20060;-55
2023/06/09 01:13:02;;;;;;;8.73;3.33;;;12.50;99.90;;;;;;5055940;28;20053;-55
2023/06/09 01:15:32;;;;;;;8.07;3.10;;;12.50;99.90;;;;;;5050333;28;20061;-55
2023/06/09 01:18:02;;;;;;;6.90;2.35;;;12.60;99.90;;;;;;5055479;28;20045;-55
2023/06/09 01:20:53;;;;;;;9.40;2.70;;;12.60;99.90;;;;;;5055726;28;20045;-55
2023/06/09 01:23:44;;;;;;;6.45;2.72;;;12.60;99.90;;;;;;5055445;28;20048;-54
2023/06/09 01:26:12;;;;;;;8.50;3.08;;;12.60;99.90;;;;;;5055729;28;20056;-56
2023/06/09 01:28:40;;;;;;;10.70;2.92;;;12.60;99.90;;;;;;5055576;28;20044;-55
2023/06/09 01:31:08;;;;;;;7.63;2.30;;;12.70;99.90;;;;;;5055290;28;20083;-54
2023/06/09 01:33:36;;;;;;;8.38;2.72;;;12.60;99.90;;;;;;5055478;28;20079;-55
2023/06/09 01:36:02;;;;;;;6.32;2.47;;;12.60;99.90;;;;;;5037844;28;20049;-55
2023/06/09 01:38:28;;;;;;;7.38;2.75;;;12.60;99.90;;;;;;5055243;28;20136;-55
2023/06/09 01:40:54;;;;;;;9.00;2.92;;;12.60;99.90;;;;;;5054120;28;20055;-55
2023/06/09 01:43:19;;;;;;;8.18;3.45;;;12.60;99.90;;;;;;5055345;28;20049;-55
2023/06/09 01:45:45;;;;;;;6.90;2.67;;;12.60;99.90;;;;;;5055379;28;20465;-54
2023/06/09 01:48:20;;;;;;;8.23;3.00;;;12.60;99.90;;;;;;5055149;28;20128;-55
2023/06/09 01:50:55;;;;;;;6.90;2.50;;;12.60;99.90;;;;;;5055002;28;20120;-55
2023/06/09 01:53:28;;;;;;;8.30;2.90;;;12.60;99.90;;;;;;5055092;28;20045;-56
2023/06/09 01:56:05;;;;;;;6.78;2.65;;;12.60;99.90;;;;;;5055211;28;20056;-55
2023/06/09 01:58:46;;;;;;;7.28;2.35;;;12.60;99.90;;;;;;5054350;28;20075;-54
2023/06/09 02:01:16;;;;;;;5.95;2.63;;;12.60;99.90;;;;;;5054848;28;20510;-54
2023/06/09 02:03:44;;;;;;;8.20;2.63;;;12.60;99.90;;;;;;5054864;28;20041;-54
2023/06/09 02:06:15;;;;;;;6.97;2.45;;;12.60;99.90;;;;;;5054856;28;20045;-55
2023/06/09 02:08:42;;;;;;;10.43;2.80;;;12.60;99.90;;;;;;5054776;28;20480;-54
2023/06/09 02:11:10;;;;;;;7.35;2.80;;;12.50;99.90;;;;;;5054567;28;20496;-55
2023/06/09 02:13:35;;;;;;;7.45;2.63;;;12.50;99.90;;;;;;5053613;28;20055;-54
2023/06/09 02:16:02;;;;;;;8.32;2.65;;;12.50;99.90;;;;;;5053502;28;20119;-55
2023/06/09 02:18:27;;;;;;;8.27;2.58;;;12.50;99.90;;;;;;5054565;28;20522;-55
2023/06/09 02:20:53;;;;;;;6.17;2.50;;;12.50;99.90;;;;;;5054560;28;20080;-55
2023/06/09 02:23:21;;;;;;;6.45;2.90;;;12.50;99.90;;;;;;5054863;28;20119;-55
2023/06/09 02:25:47;;;;;;;6.63;2.42;;;12.50;99.90;;;;;;5054620;28;20049;-53
2023/06/09 02:28:13;;;;;;;6.95;2.55;;;12.50;99.90;;;;;;5054414;28;20041;-54
2023/06/09 02:30:39;;;;;;;8.00;2.63;;;12.50;99.90;;;;;;5054071;28;20535;-54
2023/06/09 02:33:05;;;;;;;7.50;2.97;;;12.50;99.90;;;;;;5054187;28;20048;-54
2023/06/09 02:35:31;;;;;;;10.50;3.42;;;12.50;99.90;;;;;;5053521;28;20048;-54
2023/06/09 02:37:57;;;;;;;7.35;2.90;;;12.50;99.90;;;;;;5053483;28;20044;-54
2023/06/09 02:40:26;;;;;;;6.85;2.50;;;12.50;99.90;;;;;;5054180;28;20071;-55
2023/06/09 02:42:51;;;;;;;6.50;2.47;;;12.50;99.90;;;;;;5054160;28;20045;-54
2023/06/09 02:45:17;;;;;;;7.00;2.70;;;12.50;99.90;;;;;;5054100;28;20496;-54
2023/06/09 02:47:43;;;;;;;9.45;3.28;;;12.50;99.90;;;;;;5053757;28;20110;-54
2023/06/09 02:50:09;;;;;;;7.47;2.50;;;12.50;99.90;;;;;;5054030;28;20037;-54
2023/06/09 02:52:35;;;;;;;7.82;2.88;;;12.50;99.90;;;;;;5054118;28;20052;-54
2023/06/09 02:55:01;;;;;;;6.17;2.83;;;12.40;99.90;;;;;;5053878;28;20041;-55
2023/06/09 02:57:27;;;;;;;8.27;2.97;;;12.40;99.90;;;;;;5053757;28;20503;-54
2023/06/09 02:59:54;;;;;;;7.47;2.47;;;12.40;99.90;;;;;;5053837;28;20123;-54
2023/06/09 03:02:20;;;;;;;7.13;2.47;;;12.40;99.90;;;;;;5053530;28;20427;-55
2023/06/09 03:04:46;;;;;;;7.93;3.00;;;12.40;99.90;;;;;;5052918;28;20055;-54
2023/06/09 03:07:16;;;;;;;8.82;3.17;;;12.40;99.90;;;;;;5052810;28;20049;-55
2023/06/09 03:09:42;;;;;;;6.43;2.53;;;12.40;99.90;;;;;;5053710;28;20461;-54
2023/06/09 03:12:09;;;;;;;7.38;2.72;;;12.40;99.90;;;;;;5052402;28;20480;-55
2023/06/09 03:14:35;;;;;;;;;;;12.40;99.90;;;;;;5053904;28;20045;-53
2023/06/09 03:17:01;;;;;;;6.75;3.03;;;12.40;99.90;;;;;;5053481;28;19928;-54
2023/06/09 03:19:27;;;;;;;;;;;12.40;99.90;;;;;;5054000;28;20087;-55
2023/06/09 03:21:53;;;;;;;6.53;2.67;;;12.30;99.90;;;;;;5053696;28;19971;-54
2023/06/09 03:24:19;;;;;;;7.63;3.17;;;12.30;99.90;;;;;;5053615;28;20045;-55
2023/06/09 03:26:46;;;;;;;9.55;3.42;;;12.30;99.90;;;;;;5053435;28;20041;-54
2023/06/09 03:29:12;;;;;;;6.63;3.00;;;12.30;99.90;;;;;;5053287;28;20090;-54
2023/06/09 03:31:37;;;;;;;9.48;3.25;;;12.30;99.90;;;;;;5053000;28;20500;-52
2023/06/09 03:34:03;;;;;;;7.23;2.83;;;12.30;99.90;;;;;;5053603;28;20037;-53
2023/06/09 03:36:29;;;;;;;6.43;2.70;;;12.30;99.90;;;;;;5053408;28;20143;-54
2023/06/09 03:38:54;;;;;;;12.90;3.97;;;12.30;99.90;;;;;;5053468;28;20132;-54
2023/06/09 03:41:21;;;;;;;7.40;3.13;;;12.30;99.90;;;;;;5053202;28;20049;-53
2023/06/09 03:43:47;;;;;;;;;;;12.30;99.90;;;;;;5053631;28;20291;-51
2023/06/09 03:46:13;;;;;;;9.95;3.40;;;12.30;99.90;;;;;;5053214;28;20360;-53
2023/06/09 03:48:40;;;;;;;9.50;3.67;;;12.40;99.90;;;;;;5057574;28;20056;-52
2023/06/09 03:51:06;;;;;;;9.18;3.33;;;12.40;99.90;;;;;;5057401;28;20417;-54
2023/06/09 03:53:31;;;;;;;11.68;3.60;;;12.40;99.90;;;;;;5057497;28;20492;-54
2023/06/09 03:55:59;;;;;;;10.05;3.20;;;12.50;99.90;;;;;;5057006;28;20037;-53
2023/06/09 03:58:25;;;;;;;8.52;3.22;;;12.40;99.90;;;;;;5057054;28;20480;-55
2023/06/09 04:00:51;;;;;;;9.18;2.90;;;12.50;99.90;;;;;;5057270;28;20052;-52
2023/06/09 04:03:20;;;;;;;10.20;3.33;;;12.50;99.90;;;;;;5056259;28;20052;-53
2023/06/09 04:05:46;;;;;;;9.60;3.45;;;12.50;99.90;;;;;;5056482;28;20110;-52
2023/06/09 04:08:12;;;;;;;10.45;3.42;;;12.50;99.90;;;;;;5056443;28;20055;-52
2023/06/09 04:10:38;;;;;;;10.07;3.07;;;12.60;99.90;;;;;;5056951;28;20049;-53
2023/06/09 04:13:04;;;;;;;7.10;2.85;;;12.60;99.90;;;;;;5056702;28;20127;-53
2023/06/09 04:15:31;;;;;;;8.97;3.83;;;12.60;99.90;;;;;;5057018;28;20124;-53
2023/06/09 04:17:57;;;;;;;8.38;2.78;;;12.60;99.90;;;;;;5056913;28;20371;-54
2023/06/09 04:20:24;;;;;;;6.47;2.72;;;12.60;99.90;;;;;;5056877;28;20114;-51
2023/06/09 04:22:51;;;;;;;6.47;3.53;;;12.70;99.90;;;;;;5039580;28;20084;-52
2023/06/09 04:25:19;;;;;;;7.63;2.70;;;12.70;99.90;;;;;;5056718;28;20063;-53
2023/06/09 04:27:45;;;;;;;7.63;3.25;;;12.70;99.90;;;;;;5056586;28;20056;-53
2023/06/09 04:30:11;;;;;;;6.07;2.70;;;12.80;99.90;;;;;;5056699;28;20044;-54
2023/06/09 04:32:37;;;;;;;7.82;2.15;;;12.80;99.90;;;;;;5056849;28;20141;-53
2023/06/09 04:35:03;;;;;;;9.27;2.47;;;12.80;99.90;;;;;;5056520;28;20200;-53
2023/06/09 04:37:30;;;;;;;6.35;3.05;;;12.80;99.90;;;;;;5056582;28;20049;-53
2023/06/09 04:39:56;;;;;;;6.10;2.72;;;12.80;99.90;;;;;;5056431;28;20489;-52
2023/06/09 04:42:22;;;;;;;10.07;4.53;;;12.90;99.90;;;;;;5056410;28;20052;-52
2023/06/09 04:44:49;;;;;;;6.63;2.88;;;12.90;99.90;;;;;;5056699;28;20049;-53
2023/06/09 04:47:18;;;;;;;7.63;2.40;;;12.90;99.90;;;;;;5056412;28;20128;-50
2023/06/09 04:49:49;;;;;;;6.07;2.78;;;12.90;99.90;;;;;;5055189;28;20047;-53
2023/06/09 04:52:19;;;;;;;7.05;2.45;;;13.00;99.90;;;;;;5055496;28;20053;-53
2023/06/09 04:54:44;;;;;;;6.18;3.05;;;13.00;99.90;;;;;;5055978;28;20466;-52
2023/06/09 04:57:11;;;;;;;7.35;2.58;;;13.00;99.90;;;;;;5056486;28;20041;-53
2023/06/09 04:59:40;;;;;;;;;;;13.00;99.90;;;;;;5055828;28;20045;-55
2023/06/09 05:02:07;;;;;;;8.60;2.88;;;13.00;99.90;;;;;;5055169;28;19921;-53
2023/06/09 05:04:33;;;;;;;7.85;2.90;;;13.00;99.90;;;;;;5056091;28;20451;-53
2023/06/09 05:06:59;;;;;;;7.53;2.55;;;13.00;99.90;;;;;;5056047;28;20045;-54
2023/06/09 05:09:25;;;;;;;7.43;3.07;;;13.10;99.90;;;;;;5055802;28;20079;-54
2023/06/09 05:11:51;;;;;;;6.47;2.70;;;13.20;99.90;;;;;;5055009;28;20136;-55
2023/06/09 05:14:16;;;;;;;7.80;3.10;;;13.40;99.90;;;;;;5056222;28;20399;-49
2023/06/09 05:16:45;;;;;;;8.63;3.33;;;13.50;99.90;;;;;;5055848;28;20044;-53
2023/06/09 05:19:11;;;;;;;7.72;3.25;;;13.80;99.90;;;;;;5055635;28;20506;-51
2023/06/09 05:21:37;;;;;;;7.47;2.40;;;14.20;99.90;;;;;;5054756;28;20049;-52
2023/06/09 05:24:03;;;;;;;8.05;3.13;;;14.30;99.90;;;;;;5054665;28;20396;-54
2023/06/09 05:26:29;;;;;;;8.43;3.58;;;14.20;99.90;;;;;;5055591;28;20130;-48
2023/06/09 05:28:55;;;;;;;7.28;2.95;;;14.20;99.90;;;;;;5055748;28;20052;-48
2023/06/09 05:31:21;;;;;;;5.93;2.47;;;14.20;99.90;;;;;;5054077;28;20052;-47
2023/06/09 05:33:46;;;;;;;9.30;2.80;;;14.20;99.90;;;;;;5055553;28;20129;-51
2023/06/09 05:36:12;;;;;;;8.07;2.97;;;14.20;99.90;;;;;;5055219;28;20128;-52
2023/06/09 05:38:38;;;;;;;7.55;2.30;;;14.10;99.90;;;;;;5055211;28;20099;-53
2023/06/09 05:41:04;;;;;;;10.87;2.87;;;14.20;99.90;;;;;;5055382;28;20051;-53
2023/06/09 05:43:29;;;;;;;8.23;2.93;;;14.20;99.90;;;;;;5055345;28;20045;-48
2023/06/09 05:45:57;;;;;;;8.45;3.70;;;14.30;99.90;;;;;;5055289;28;20550;-50
2023/06/09 05:48:23;;;;;;;7.60;2.65;;;14.40;99.90;;;;;;5055442;28;20055;-53
2023/06/09 05:50:49;;;;;;;8.27;2.92;;;14.40;99.90;;;;;;5055089;28;20124;-49
2023/06/09 05:53:16;;;;;;;6.45;2.90;;;14.50;99.90;;;;;;5054907;28;20052;-51
2023/06/09 05:55:44;;;;;;;9.38;3.10;;;14.50;99.90;;;;;;5053914;28;20041;-55
2023/06/09 05:58:11;;;;;;;8.13;2.90;;;14.60;99.90;;;;;;5055045;28;20052;-52
2023/06/09 06:00:37;;;;;;;7.35;2.78;;;14.60;99.90;;;;;;5054952;28;20052;-55
2023/06/09 06:03:03;;;;;;;15.00;6.10;;;14.60;99.90;;;;;;5053924;28;20048;-50
2023/06/09 06:05:29;;;;;;;8.27;3.20;;;14.70;99.90;;;;;;5054882;28;20055;-54
2023/06/09 06:07:58;;;;;;;9.77;3.33;;;14.80;99.90;;;;;;5054412;28;20404;-54
2023/06/09 06:10:24;;;;;;;9.07;3.17;;;14.80;99.90;;;;;;5053846;28;20056;-49
2023/06/09 06:12:50;;;;;;;10.30;3.63;;;15.00;99.90;;;;;;5054483;28;20503;-47
2023/06/09 06:15:16;;;;;;;5.97;2.47;;;15.00;99.90;;;;;;5054627;28;20037;-48
2023/06/09 06:17:42;;;;;;;8.00;2.83;;;15.10;99.90;;;;;;5054720;28;20055;-48
2023/06/09 06:20:08;;;;;;;5.73;2.63;;;15.10;99.90;;;;;;5054555;28;20290;-47
2023/06/09 06:22:34;;;;;;;9.00;2.97;;;15.20;99.90;;;;;;5054392;28;20488;-50
2023/06/09 06:25:00;;;;;;;9.77;3.65;;;15.30;99.90;;;;;;5054486;28;20037;-48
2023/06/09 06:27:25;;;;;;;8.07;2.60;;;15.40;99.90;;;;;;5054460;28;20049;-48
2023/06/09 06:29:51;;;;;;;11.13;3.30;;;15.40;99.90;;;;;;5054674;28;20488;-47
2023/06/09 06:32:25;;;;;;;6.93;3.20;;;15.40;99.90;;;;;;5150585;27;1276329;-51
2023/06/09 06:34:50;;;;;;;7.70;3.17;;;15.40;99.90;;;;;;5173610;27;20443;-49
2023/06/09 06:37:16;;;;;;;8.33;2.70;;;15.40;99.90;;;;;;5173291;27;20042;-48
2023/06/09 06:39:42;;;;;;;7.93;2.97;;;15.50;99.90;;;;;;5173611;27;20363;-50
2023/06/09 06:42:07;;;;;;;6.68;2.97;;;15.50;99.90;;;;;;5155022;27;20319;-55
2023/06/09 06:44:33;;;;;;;6.80;2.70;;;15.60;99.90;;;;;;5155054;27;20058;-49
2023/06/09 06:46:59;;;;;;;7.95;2.72;;;15.70;99.90;;;;;;5173199;27;20046;-49
2023/06/09 06:49:24;;;;;;;10.10;2.97;;;15.80;99.90;;;;;;5173194;27;20450;-48
2023/06/09 06:51:50;;;;;;;8.10;3.15;;;15.80;99.90;;;;;;5173359;27;20494;-47
2023/06/09 06:54:16;;;;;;;12.15;3.53;;;16.00;99.90;;;;;;5173243;27;20125;-47
2023/06/09 06:56:42;;;;;;;7.53;2.60;;;16.20;99.90;;;;;;5173191;27;20082;-47
2023/06/09 06:59:09;;;;;;;8.30;3.03;;;16.20;99.90;;;;;;5173336;27;20085;-49
2023/06/09 07:01:37;;;;;;;5.78;2.42;;;16.30;99.90;;;;;;5173013;27;20303;-47
2023/06/09 07:04:03;;;;;;;8.73;2.90;;;16.30;99.90;;;;;;5172893;27;20049;-48
2023/06/09 07:06:29;;;;;;;8.60;2.78;;;16.40;99.90;;;;;;5172880;27;20046;-48
2023/06/09 07:08:56;;;;;;;7.88;2.85;;;16.50;99.90;;;;;;5173355;27;20051;-47
2023/06/09 07:11:22;;;;;;;6.38;2.33;;;16.60;99.90;;;;;;5172743;27;20442;-47
2023/06/09 07:13:47;;;;;;;7.38;2.83;;;16.70;99.90;;;;;;5173092;27;20083;-48
2023/06/09 07:16:13;;;;;;;7.43;2.70;;;16.90;99.90;;;;;;5172711;27;20095;-47
2023/06/09 07:18:39;;;;;;;6.07;2.53;;;17.00;99.90;;;;;;5172748;27;20051;-49
2023/06/09 07:21:04;;;;;;;7.57;2.67;;;17.10;99.90;;;;;;5172522;27;20397;-50
2023/06/09 07:23:30;;;;;;;5.50;1.80;;;17.30;99.90;;;;;;5172700;27;20461;-49
2023/06/09 07:25:55;;;;;;;6.63;3.10;;;17.50;99.90;;;;;;5172552;27;20400;-48
2023/06/09 07:28:21;;;;;;;9.00;2.90;;;17.70;99.90;;;;;;5154164;27;20035;-49
2023/06/09 07:30:47;;;;;;;7.70;3.08;;;17.90;99.90;;;;;;5153833;27;20057;-48
2023/06/09 07:33:13;;;;;;;5.25;2.22;;;17.90;99.90;;;;;;5172269;27;20054;-48
2023/06/09 07:35:39;;;;;;;9.02;2.88;;;17.80;99.90;;;;;;5172251;27;20099;-48
2023/06/09 07:38:05;;;;;;;;;;;17.80;99.90;;;;;;5172581;27;20606;-47
2023/06/09 07:40:30;;;;;;;9.80;2.60;;;17.80;99.90;;;;;;5172176;27;19970;-50
2023/06/09 07:42:56;;;;;;;6.10;2.38;;;17.80;99.90;;;;;;5163264;27;20139;-49
2023/06/09 07:45:22;;;;;;;6.95;3.10;;;17.80;99.90;;;;;;5158443;27;20035;-47
2023/06/09 07:47:47;;;;;;;7.07;2.47;;;17.80;99.90;;;;;;5158122;27;20043;-47
2023/06/09 07:50:13;;;;;;;6.93;3.13;;;17.80;99.90;;;;;;5158059;27;20445;-47
2023/06/09 07:52:39;;;;;;;6.22;2.78;;;17.80;99.90;;;;;;5158254;27;20125;-47
2023/06/09 07:55:06;;;;;;;6.93;2.72;;;17.80;99.90;;;;;;5158047;27;20122;-47
2023/06/09 07:57:32;;;;;;;10.50;3.25;;;17.80;99.90;;;;;;5158153;27;20486;-47
2023/06/09 07:59:58;;;;;;;6.90;2.80;;;17.90;99.90;;;;;;5158013;27;20130;-48
2023/06/09 08:02:23;;;;;;;5.70;2.72;;;18.00;99.90;;;;;;5157720;27;20078;-47
2023/06/09 08:04:49;;;;;;;9.18;3.28;;;18.10;99.90;;;;;;5139267;27;20047;-47
2023/06/09 08:07:15;;;;;;;7.88;2.95;;;18.10;99.90;;;;;;5157944;27;20043;-48
2023/06/09 08:09:41;;;;;;;7.20;3.00;;;18.20;99.90;;;;;;5157766;27;20050;-47
2023/06/09 08:12:07;;;;;;;7.03;2.80;;;18.30;99.90;;;;;;5157784;27;20103;-47
2023/06/09 08:14:33;;;;;;;;;;;18.30;99.90;;;;;;5158045;27;20046;-48
2023/06/09 08:16:59;;;;;;;7.60;2.70;;;18.30;99.90;;;;;;5157543;27;19963;-47
2023/06/09 08:19:25;;;;;;;7.75;3.10;;;18.30;99.90;;;;;;5157392;27;20042;-47
2023/06/09 08:21:50;;;;;;;7.78;2.67;;;18.40;99.90;;;;;;5157845;27;20381;-48
2023/06/09 08:24:16;;;;;;;7.15;3.08;;;18.40;99.90;;;;;;5157613;27;20524;-48
2023/06/09 08:26:43;;;;;;;10.50;2.58;;;18.40;99.90;;;;;;5157730;27;20051;-48
2023/06/09 08:29:10;;;;;;;7.55;2.72;;;18.50;99.90;;;;;;5157344;27;20489;-47
2023/06/09 08:31:37;;;;;;;8.07;2.80;;;18.50;99.90;;;;;;5157332;27;20439;-52
2023/06/09 08:34:03;;;;;;;6.10;2.63;;;18.60;99.90;;;;;;5139171;27;20571;-48
2023/06/09 08:36:29;;;;;;;8.68;3.05;;;18.70;99.90;;;;;;5157489;27;20043;-47
2023/06/09 08:38:55;;;;;;;8.15;3.22;;;18.80;99.90;;;;;;5157799;27;20095;-46
2023/06/09 08:41:25;;;;;;;5.85;2.97;;;18.90;99.90;;;;;;5157274;27;20046;-50
2023/06/09 08:43:51;;;;;;;7.63;2.88;;;19.00;99.90;;;;;;5139080;27;20486;-48
2023/06/09 08:46:19;;;;;;;8.90;2.85;;;19.00;99.90;;;;;;5138646;27;20062;-46
2023/06/09 08:48:56;;;;;;;6.45;2.75;;;19.10;99.90;;;;;;5156826;27;20452;-46
2023/06/09 08:51:22;;;;;;;6.28;1.98;;;19.10;99.90;;;;;;5157335;27;20438;-46
2023/06/09 08:53:55;;;;;;;6.72;2.70;;;19.10;99.90;;;;;;5156094;27;20478;-46
2023/06/09 08:56:21;;;;;;;6.93;2.80;;;19.20;99.90;;;;;;5138668;27;20047;-48
2023/06/09 08:58:51;;;;;;;7.65;2.53;;;19.30;99.90;;;;;;5138502;27;20047;-48
2023/06/09 09:01:17;;;;;;;5.25;2.35;;;19.30;99.90;;;;;;5156885;27;20039;-48
2023/06/09 09:03:50;;;;;;;6.53;1.90;;;19.40;99.90;;;;;;5156834;27;20129;-48
2023/06/09 09:06:16;;;;;;;12.05;4.07;;;19.40;99.90;;;;;;5156774;27;20408;-47
2023/06/09 09:08:44;;;;;;;6.40;2.53;;;19.50;99.90;;;;;;5156717;27;20038;-49
2023/06/09 09:11:10;;;;;;;5.35;1.95;;;19.60;99.90;;;;;;5156352;27;20489;-47
2023/06/09 09:13:36;;;;;;;6.30;2.05;;;19.60;99.90;;;;;;5156366;27;20413;-47
2023/06/09 09:16:01;;;;;;;5.38;1.90;;;19.70;99.90;;;;;;5156621;27;20091;-47
2023/06/09 09:18:31;;;;;;;6.18;2.25;;;19.80;99.90;;;;;;5138271;27;20487;-48
2023/06/09 09:20:58;;;;;;;5.07;2.00;;;19.90;99.90;;;;;;5156446;27;20046;-46
2023/06/09 09:23:33;;;;;;;5.40;2.00;;;20.00;99.90;;;;;;5137972;27;20485;-47
2023/06/09 09:26:00;;;;;;;5.63;2.35;;;20.00;99.90;;;;;;5120532;27;20406;-47
2023/06/09 09:28:40;;;;;;;6.95;2.45;;;20.00;99.90;;;;;;5156316;27;20405;-46
2023/06/09 09:31:09;;;;;;;5.57;2.33;;;20.10;99.90;;;;;;5156637;27;20054;-47
2023/06/09 09:33:38;;;;;;;6.10;2.15;;;20.20;99.90;;;;;;5137595;27;20517;-46
2023/06/09 09:36:09;;;;;;;7.40;2.63;;;20.30;99.90;;;;;;5156131;27;20038;-46
2023/06/09 09:38:35;;;;;;;5.68;2.35;;;20.30;99.90;;;;;;5155905;27;20046;-48
2023/06/09 09:41:01;;;;;;;6.53;2.03;;;20.40;99.90;;;;;;5137636;27;20039;-48
2023/06/09 09:43:27;;;;;;;;;;;20.50;99.90;;;;;;5138399;27;20055;-49
2023/06/09 09:45:55;;;;;;;4.63;1.92;;;20.60;99.90;;;;;;5155850;27;20418;-48
2023/06/09 09:48:24;;;;;;;5.15;1.55;;;20.70;99.90;;;;;;5155742;27;20485;-49
2023/06/09 09:50:52;;;;;;;5.85;1.90;;;20.70;99.90;;;;;;5155690;27;20095;-48
2023/06/09 09:53:22;;;;;;;6.88;2.00;;;20.80;99.90;;;;;;5155698;27;20050;-48
2023/06/09 09:55:50;;;;;;;4.20;1.58;;;20.80;99.90;;;;;;5156365;27;20363;-49
2023/06/09 09:58:16;;;;;;;5.32;2.05;;;20.90;99.90;;;;;;5155676;27;20055;-48
2023/06/09 10:00:44;;;;;;;5.53;2.00;;;20.90;99.90;;;;;;5155700;27;20125;-51
2023/06/09 10:03:14;;;;;;;5.63;1.85;;;21.00;99.90;;;;;;5155794;27;20626;-50
2023/06/09 10:05:45;;;;;;;4.90;2.33;;;21.10;99.90;;;;;;5155238;27;20614;-53
2023/06/09 10:08:33;;;;;;;4.80;2.30;;;21.20;99.90;;;;;;5155969;27;20085;-48
2023/06/09 10:11:00;;;;;;;5.28;1.63;;;21.30;99.90;;;;;;5155028;27;20057;-48
2023/06/09 10:13:27;;;;;;;5.75;1.90;;;21.40;99.90;;;;;;5155448;27;20054;-49
2023/06/09 10:15:54;;;;;;;4.72;1.80;;;21.50;99.90;;;;;;5155270;27;20038;-49
2023/06/09 10:18:22;;;;;;;7.55;2.28;;;21.70;99.90;;;;;;5155213;27;20046;-48
2023/06/09 10:20:50;;;;;;;5.22;2.00;;;21.80;99.90;;;;;;5155449;27;20070;-50
2023/06/09 10:23:16;;;;;;;6.78;2.17;;;21.90;99.90;;;;;;5155342;27;20035;-50
2023/06/09 10:25:42;;;;;;;;;;;22.10;99.90;;;;;;5155937;27;20125;-50
2023/06/09 10:28:10;;;;;;;4.50;1.88;;;22.20;99.90;;;;;;5155419;27;20055;-50
2023/06/09 10:30:37;;;;;;;5.82;1.92;;;22.30;99.90;;;;;;5154752;27;20111;-50
2023/06/09 10:33:14;;;;;;;7.05;2.10;;;22.50;99.90;;;;;;5156012;27;20125;-53
2023/06/09 10:35:43;;;;;;;5.55;2.20;;;22.60;99.90;;;;;;5136933;27;20486;-53
2023/06/09 10:38:31;;;;;;;4.78;1.75;;;22.80;99.90;;;;;;5136991;27;20078;-49
2023/06/09 10:41:15;;;;;;;5.90;2.20;;;23.00;99.90;;;;;;5155251;27;20043;-47
2023/06/09 10:44:06;;;;;;;5.95;2.15;;;23.10;99.90;;;;;;5155463;27;20045;-48
2023/06/09 10:46:46;;;;;;;4.75;2.10;;;23.30;99.90;;;;;;5155431;27;20050;-48
2023/06/09 10:49:24;;;;;;;4.72;1.73;;;23.50;99.90;;;;;;5155037;27;20087;-48
2023/06/09 10:51:50;;;;;;;5.32;2.20;;;23.70;99.90;;;;;;5154862;27;20043;-47
2023/06/09 10:54:21;;;;;;;4.72;1.75;;;23.80;99.90;;;;;;5155156;27;20572;-47
2023/06/09 10:56:56;;;;;;;4.95;1.83;;;23.90;99.90;;;;;;5155073;27;20122;-50
2023/06/09 10:59:26;;;;;;;5.03;2.17;;;24.00;99.90;;;;;;5136886;27;20050;-47
2023/06/09 11:02:21;;;;;;;5.43;2.20;;;24.10;99.90;;;;;;5154871;27;20051;-47
2023/06/09 11:04:48;;;;;;;4.90;1.83;;;24.20;99.90;;;;;;5134229;27;20070;-47
2023/06/09 11:07:25;;;;;;;5.60;2.13;;;24.40;99.90;;;;;;5154949;27;20053;-47
2023/06/09 11:09:51;;;;;;;5.75;2.58;;;24.50;99.90;;;;;;5155042;27;20129;-51
2023/06/09 11:12:21;;;;;;;;;;;24.60;99.90;;;;;;5155295;27;20125;-47
2023/06/09 11:14:56;;;;;;;5.50;2.30;;;24.80;99.90;;;;;;5154832;27;19919;-46
2023/06/09 11:17:25;;;;;;;5.72;1.70;;;24.80;99.90;;;;;;5137522;27;20054;-46
2023/06/09 11:19:52;;;;;;;4.80;1.80;;;24.80;99.90;;;;;;5158827;27;20039;-50
2023/06/09 11:22:18;;;;;;;6.38;2.13;;;24.90;99.90;;;;;;5158799;27;20060;-47
2023/06/09 11:24:46;;;;;;;;;;;25.00;99.90;;;;;;5140846;27;20546;-50
2023/06/09 11:27:21;;;;;;;4.80;1.85;;;25.10;99.90;;;;;;5158515;27;19941;-50
2023/06/09 11:30:06;;;;;;;3.58;1.73;;;25.10;99.90;;;;;;5158552;27;20046;-49
2023/06/09 11:32:47;;;;;;;4.38;2.03;;;25.20;99.90;;;;;;5158624;27;20050;-48
2023/06/09 11:35:28;;;;;;;4.25;1.90;;;25.40;99.90;;;;;;5158497;27;20133;-52
2023/06/09 11:37:58;;;;;;;5.70;1.85;;;25.50;99.90;;;;;;5158483;27;20062;-50
2023/06/09 11:40:25;;;;;;;4.30;2.08;;;25.60;99.90;;;;;;5158320;27;20091;-50
2023/06/09 11:42:51;;;;;;;4.28;2.08;;;25.70;98.30;;;;;;5139733;27;20146;-47
2023/06/09 11:45:17;;;;;;;;;;;25.70;97.20;;;;;;5140452;27;20460;-52
2023/06/09 11:47:44;;;;;;;4.60;2.10;;;25.70;97.60;;;;;;5158000;27;19970;-50
2023/06/09 11:50:13;;;;;;;7.57;2.83;;;25.80;97.00;;;;;;5157895;27;20126;-50
2023/06/09 11:52:42;;;;;;;5.88;2.00;;;25.80;96.00;;;;;;5158185;27;20598;-50
2023/06/09 11:55:09;;;;;;;4.95;2.25;;;25.90;96.40;;;;;;5157980;27;20043;-51
2023/06/09 11:57:36;;;;;;;4.65;2.10;;;26.10;96.90;;;;;;5158057;27;20052;-50
2023/06/09 12:00:23;;;;;;;5.10;2.28;;;26.20;96.50;;;;;;5158185;27;20082;-50
2023/06/09 12:02:49;;;;;;;4.05;1.70;;;26.30;95.60;;;;;;5139712;27;20457;-50
2023/06/09 12:05:16;;;;;;;5.50;2.00;;;26.40;95.20;;;;;;5157680;27;20082;-51
2023/06/09 12:07:43;;;;;;;4.85;2.00;;;26.50;94.60;;;;;;5158068;27;20125;-50
2023/06/09 12:10:09;;;;;;;5.13;2.17;;;26.60;94.30;;;;;;5157432;27;20489;-51
2023/06/09 12:12:48;;;;;;;5.75;2.20;;;26.70;93.00;;;;;;5157858;27;20043;-52
2023/06/09 12:15:15;;;;;;;6.90;2.83;;;26.70;92.50;;;;;;5157651;27;20047;-53
2023/06/09 12:17:42;;;;;;;5.03;1.98;;;26.80;92.30;;;;;;5157618;27;20043;-50
2023/06/09 12:20:35;;;;;;;5.00;2.15;;;26.90;92.60;;;;;;5157608;27;20082;-49
2023/06/09 12:23:06;;;;;;;4.55;1.67;;;27.00;92.80;;;;;;5139393;27;20050;-52
2023/06/09 12:25:35;;;;;;;4.60;2.30;;;27.00;92.10;;;;;;5157385;27;20071;-53
2023/06/09 12:28:22;;;;;;;4.53;2.03;;;27.10;92.40;;;;;;5157320;27;20042;-48
2023/06/09 12:30:55;;;;;;;4.78;1.83;;;27.10;92.00;;;;;;5157240;27;20058;-52
2023/06/09 12:33:26;;;;;;;3.80;1.80;;;27.20;92.00;;;;;;5139349;27;20078;-51
2023/06/09 12:36:02;;;;;;;4.65;1.95;;;27.20;91.20;;;;;;5157158;27;20042;-53
2023/06/09 12:38:28;;;;;;;3.53;1.70;;;27.20;91.20;;;;;;5157264;27;20051;-51
2023/06/09 12:40:54;;;;;;;8.90;2.78;;;27.30;91.60;;;;;;5157223;27;20474;-52
2023/06/09 12:43:41;;;;;;;5.40;1.92;;;27.30;91.20;;;;;;5157213;27;20042;-51
2023/06/09 12:46:06;;;;;;;;;;;27.40;91.20;;;;;;5138752;27;20141;-56
2023/06/09 12:48:32;;;;;;;3.47;1.97;;;27.40;91.60;;;;;;5156864;27;20009;-49
2023/06/09 12:50:58;;;;;;;4.60;2.05;;;27.40;90.60;;;;;;5121651;27;20042;-53
2023/06/09 12:53:24;;;;;;;5.15;1.90;;;27.50;90.60;;;;;;5156951;27;20050;-51
2023/06/09 12:55:49;;;;;;;4.93;2.17;;;27.50;90.00;;;;;;5156996;27;20069;-52